Time;durP1;ratioP1;P1;durP2;ratioP2;P2;SDS_P1;SDS_P2;PMS_P1;PMS_P2;Temp;Humidity;BMP_temperature;BMP_pressure;BME280_temperature;BME280_humidity;BME280_pressure;Samples;Min_cycle;Max_cycle;Signal;HPM_P1;HPM_P2
2023/10/10 00:00:55;;;;;;;;;;;;;;;-145.06;0.00;60892.56;6000713;23;19911;-90
2023/10/10 00:03:37;;;;;;;;;;;;;;;-145.06;0.00;60892.56;5998355;23;19907;-89
2023/10/10 00:06:18;;;;;;;;;;;;;;;-145.06;0.00;60892.56;5997979;23;19908;-90
2023/10/10 00:08:57;;;;;;;;;;;;;;;-145.06;0.00;60892.56;5998059;23;19911;-90
2023/10/10 00:11:42;;;;;;;;;;;;;;;-145.06;0.00;60892.56;6000703;23;19915;-89
2023/10/10 00:14:22;;;;;;;;;;;;;;;-145.06;0.00;60892.56;6000773;23;19908;-90
2023/10/10 00:17:01;;;;;;;;;;;;;;;-145.06;0.00;60892.56;6000498;23;19912;-89
2023/10/10 00:19:52;;;;;;;;;;;;;;;-145.06;0.00;60892.56;5998657;23;19911;-90
2023/10/10 00:22:36;;;;;;;;;;;;;;;-145.06;0.00;60892.56;6000168;23;19911;-91
2023/10/10 00:25:19;;;;;;;;;;;;;;;-145.06;0.00;60892.56;5999927;23;20239;-90
2023/10/10 00:28:06;;;;;;;;;;;;;;;-145.06;0.00;60892.56;5999441;23;19912;-90
2023/10/10 00:30:45;;;;;;;;;;;;;;;-145.06;0.00;60892.56;6001243;23;19934;-90
2023/10/10 00:33:24;;;;;;;;;;;;;;;-145.06;0.00;60892.56;6001204;23;19915;-88
2023/10/10 00:36:03;;;;;;;;;;;;;;;-145.06;0.00;60892.56;6032335;23;19911;-90
2023/10/10 00:38:42;;;;;;;;;;;;;;;-145.06;0.00;60892.56;5998826;23;20227;-90
2023/10/10 00:41:23;;;;;;;;;;;;;;;-145.06;0.00;60892.56;5997190;23;20336;-89
2023/10/10 00:44:04;;;;;;;;;;;;;;;-145.06;0.00;60892.56;5998263;23;19915;-89
2023/10/10 00:46:51;;;;;;;;;;;;;;;-145.06;0.00;60892.56;5998949;23;20448;-89
2023/10/10 00:49:34;;;;;;;;;;;;;;;-145.06;0.00;60892.56;5997601;23;20082;-90
2023/10/10 00:52:16;;;;;;;;;;;;;;;15.86;0.00;60892.56;5998207;23;20322;-90
2023/10/10 00:54:55;;;;;;;;;;;;;;;15.83;0.00;60892.56;5997966;23;19986;-90
2023/10/10 00:57:37;;;;;;;;;;;;;;;15.81;0.00;60892.56;6030786;23;19935;-90
2023/10/10 01:00:17;;;;;;;;;;;;;;;15.79;0.00;60892.56;5997637;23;20219;-90
2023/10/10 01:03:01;;;;;;;;;;;;;;;15.77;0.00;60892.56;5997355;23;19912;-90
2023/10/10 01:05:41;;;;;;;;;;;;;;;15.73;0.00;60892.56;5998497;23;19935;-90
2023/10/10 01:08:22;;;;;;;;;;;;;;;15.72;0.00;60892.56;5997321;23;19912;-91
2023/10/10 01:11:03;;;;;;;;;;;;;;;15.70;0.00;60892.56;5995393;23;20223;-90
2023/10/10 01:13:42;;;;;;;;;;;;;;;15.66;0.00;60892.56;5999876;23;20346;-89
2023/10/10 01:16:24;;;;;;;;;;;;;;;15.64;0.00;60892.56;6001032;23;19911;-90
2023/10/10 01:19:03;;;;;;;;;;;;;;;15.60;0.00;60892.56;6000497;23;19911;-90
2023/10/10 01:21:43;;;;;;;;;;;;;;;15.58;0.00;60892.56;6031902;23;19912;-89
2023/10/10 01:24:22;;;;;;;;;;;;;;;-145.06;0.00;60892.56;5999460;23;19912;-89
2023/10/10 01:27:15;;;;;;;;;;;;;;;-145.06;0.00;60892.56;5999985;23;20297;-90
2023/10/10 01:32:53;;;;;;;;;;;;;;;-145.06;0.00;60892.56;6034620;23;19907;-90
2023/10/10 01:35:40;;;;;;;;;;;;;;;-145.06;0.00;60892.56;6002293;23;19911;-89
2023/10/10 01:38:31;;;;;;;;;;;;;;;-145.06;0.00;60892.56;6001694;23;19911;-89
2023/10/10 01:41:21;;;;;;;;;;;;;;;-145.06;0.00;60892.56;6000960;23;19907;-89
2023/10/10 01:44:10;;;;;;;;;;;;;;;-145.06;0.00;60892.56;6001114;23;19915;-90
2023/10/10 01:46:51;;;;;;;;;;;;;;;-145.06;0.00;60892.56;6034425;23;20218;-88
2023/10/10 01:49:29;;;;;;;;;;;;;;;-145.06;0.00;60892.56;5999586;23;19935;-89
2023/10/10 01:52:12;;;;;;;;;;;;;;;-145.06;0.00;60892.56;5999079;23;20341;-89
2023/10/10 01:54:53;;;;;;;;;;;;;;;-145.06;0.00;60892.56;5999750;23;19939;-89
2023/10/10 01:57:32;;;;;;;;;;;;;;;-145.06;0.00;60892.56;5999351;23;19911;-90
2023/10/10 02:00:26;;;;;;;;;;;;;;;-145.06;0.00;60892.56;6030914;23;22384;-90
2023/10/10 02:03:06;;;;;;;;;;;;;;;-145.06;0.00;60892.56;5999425;23;19912;-90
2023/10/10 02:05:45;;;;;;;;;;;;;;;-145.06;0.00;60892.56;6000211;23;19979;-89
2023/10/10 02:08:26;;;;;;;;;;;;;;;-145.06;0.00;60892.56;6000165;23;20282;-89
2023/10/10 02:11:06;;;;;;;;;;;;;;;-145.06;0.00;60892.56;5999018;23;19915;-89
2023/10/10 02:13:47;;;;;;;;;;;;;;;-145.06;0.00;60892.56;6000595;23;19907;-90
2023/10/10 02:16:34;;;;;;;;;;;;;;;-145.06;0.00;60892.56;6001759;23;20287;-90
2023/10/10 02:19:24;;;;;;;;;;;;;;;-145.06;0.00;60892.56;6001549;23;19911;-89
2023/10/10 02:22:12;;;;;;;;;;;;;;;-145.06;0.00;60892.56;6032442;23;19911;-90
2023/10/10 02:28:19;;;;;;;;;;;;;;;-145.06;0.00;60892.56;5942689;23;19913;-90
2023/10/10 02:31:03;;;;;;;;;;;;;;;-145.06;0.00;60892.56;5936680;23;20315;-89
2023/10/10 02:33:48;;;;;;;;;;;;;;;-145.06;0.00;60892.56;6023060;23;19911;-90
2023/10/10 02:36:31;;;;;;;;;;;;;;;-145.06;0.00;60892.56;6003317;23;19911;-91
2023/10/10 02:42:00;;;;;;;;;;;;;;;-145.06;0.00;60892.56;6034117;23;20322;-89
2023/10/10 02:44:46;;;;;;;;;;;;;;;-145.06;0.00;60892.56;6003731;23;19994;-91
2023/10/10 02:47:32;;;;;;;;;;;;;;;-145.06;0.00;60892.56;6003103;23;19908;-89
2023/10/10 02:50:14;;;;;;;;;;;;;;;-145.06;0.00;60892.56;6034258;23;19912;-90
2023/10/10 02:53:00;;;;;;;;;;;;;;;-145.06;0.00;60892.56;6000506;23;19907;-89
2023/10/10 02:55:41;;;;;;;;;;;;;;;-145.06;0.00;60892.56;6001562;23;19915;-90
2023/10/10 02:58:27;;;;;;;;;;;;;;;-145.06;0.00;60892.56;6001951;23;19912;-90
2023/10/10 03:01:18;;;;;;;;;;;;;;;-145.06;0.00;60892.56;6002169;23;20227;-90
2023/10/10 03:03:58;;;;;;;;;;;;;;;-145.06;0.00;60892.56;6001075;23;19915;-90
2023/10/10 03:06:38;;;;;;;;;;;;;;;-145.06;0.00;60892.56;6002604;23;20251;-90
2023/10/10 03:12:18;;;;;;;;;;;;;;;-145.06;0.00;60892.56;6032911;23;19915;-91
2023/10/10 03:15:12;;;;;;;;;;;;;;;-145.06;0.00;60892.56;6002525;23;19908;-90
2023/10/10 03:20:49;;;;;;;;;;;;;;;-145.06;0.00;60892.56;6034252;23;19907;-90
2023/10/10 03:23:51;;;;;;;;;;;;;;;-145.06;0.00;60892.56;6001518;23;19916;-91
2023/10/10 03:26:51;;;;;;;;;;;;;;;-145.06;0.00;60892.56;6002015;23;19939;-90
2023/10/10 03:32:47;;;;;;;;;;;;;;;-145.06;0.00;60892.56;6034759;23;19911;-90
2023/10/10 03:35:52;;;;;;;;;;;;;;;-145.06;0.00;60892.56;6034300;23;19982;-89
2023/10/10 05:24:51;;;;;;;;;;;;;;;-145.06;0.00;60892.56;6037221;23;19915;-91
2023/10/10 05:27:32;;;;;;;;;;;;;;;-145.06;0.00;60892.56;6003889;23;19907;-90
2023/10/10 05:30:23;;;;;;;;;;;;;;;-145.06;0.00;60892.56;6004702;23;19911;-91
2023/10/10 05:33:05;;;;;;;;;;;;;;;-145.06;0.00;60892.56;6003644;23;19907;-90
2023/10/10 05:35:44;;;;;;;;;;;;;;;-145.06;0.00;60892.56;6005066;23;19911;-90
2023/10/10 05:38:25;;;;;;;;;;;;;;;-145.06;0.00;60892.56;6004422;23;19912;-92
2023/10/10 05:41:06;;;;;;;;;;;;;;;-145.06;0.00;60892.56;6002835;23;19986;-91
2023/10/10 05:43:49;;;;;;;;;;;;;;;-145.06;0.00;60892.56;6003785;23;19939;-90
2023/10/10 05:46:30;;;;;;;;;;;;;;;-145.06;0.00;60892.56;6005053;23;19986;-90
2023/10/10 05:49:09;;;;;;;;;;;;;;;-145.06;0.00;60892.56;6003766;23;19911;-92
2023/10/10 05:51:48;;;;;;;;;;;;;;;-145.06;0.00;60892.56;6002251;23;19911;-90
2023/10/10 05:54:27;;;;;;;;;;;;;;;-145.06;0.00;60892.56;6004612;23;19912;-91
2023/10/10 05:57:10;;;;;;;;;;;;;;;-145.06;0.00;60892.56;6002356;23;19908;-91
2023/10/10 05:59:49;;;;;;;;;;;;;;;-145.06;0.00;60892.56;6003423;23;19912;-90
2023/10/10 06:02:28;;;;;;;;;;;;;;;-145.06;0.00;60892.56;6002844;23;19908;-90
2023/10/10 06:05:08;;;;;;;;;;;;;;;-145.06;0.00;60892.56;6004068;23;19916;-90
2023/10/10 06:07:49;;;;;;;;;;;;;;;-145.06;0.00;60892.56;6002933;23;19911;-90
2023/10/10 06:10:32;;;;;;;;;;;;;;;-145.06;0.00;60892.56;6004132;23;19955;-90
2023/10/10 06:13:11;;;;;;;;;;;;;;;-145.06;0.00;60892.56;6003777;23;19915;-91
2023/10/10 06:15:50;;;;;;;;;;;;;;;-145.06;0.00;60892.56;6004431;23;19986;-90
2023/10/10 06:18:30;;;;;;;;;;;;;;;-145.06;0.00;60892.56;6002308;23;19911;-91
2023/10/10 06:21:09;;;;;;;;;;;;;;;-145.06;0.00;60892.56;6002063;23;19912;-90
2023/10/10 06:23:49;;;;;;;;;;;;;;;-145.06;0.00;60892.56;6003170;23;19908;-91
2023/10/10 06:26:28;;;;;;;;;;;;;;;-145.06;0.00;60892.56;6002451;23;20169;-90
2023/10/10 06:29:08;;;;;;;;;;;;;;;-145.06;0.00;60892.56;6033956;23;20374;-91
2023/10/10 06:31:50;;;;;;;;;;;;;;;-145.06;0.00;60892.56;6001890;23;19907;-91
2023/10/10 06:34:34;;;;;;;;;;;;;;;-145.06;0.00;60892.56;6000475;23;19916;-91
2023/10/10 06:37:13;;;;;;;;;;;;;;;-145.06;0.00;60892.56;6002114;23;19923;-91
2023/10/10 06:39:55;;;;;;;;;;;;;;;-145.06;0.00;60892.56;6002532;23;20310;-90
2023/10/10 06:42:35;;;;;;;;;;;;;;;-145.06;0.00;60892.56;6003606;23;19954;-91
2023/10/10 06:45:21;;;;;;;;;;;;;;;-145.06;0.00;60892.56;6003635;23;19911;-90
2023/10/10 06:48:01;;;;;;;;;;;;;;;-145.06;0.00;60892.56;6003216;23;19935;-90
2023/10/10 06:50:40;;;;;;;;;;;;;;;14.54;0.00;60892.56;6002417;23;19907;-91
2023/10/10 06:53:34;;;;;;;;;;;;;;;-145.06;0.00;60892.56;6002835;23;19943;-92
2023/10/10 06:56:17;;;;;;;;;;;;;;;-145.06;0.00;60892.56;6005324;23;20315;-90
2023/10/10 06:58:56;;;;;;;;;;;;;;;-145.06;0.00;60892.56;6004735;23;19987;-90
2023/10/10 07:01:36;;;;;;;;;;;;;;;-145.06;0.00;60892.56;6005022;23;19912;-91
2023/10/10 07:04:19;;;;;;;;;;;;;;;-145.06;0.00;60892.56;6006070;23;19915;-91
2023/10/10 07:07:00;;;;;;;;;;;;;;;-145.06;0.00;60892.56;6005550;23;19907;-92
2023/10/10 07:09:42;;;;;;;;;;;;;;;-145.06;0.00;60892.56;6003946;23;19915;-91
2023/10/10 07:12:21;;;;;;;;;;;;;;;-145.06;0.00;60892.56;6003042;23;19915;-92
2023/10/10 07:15:06;;;;;;;;;;;;;;;-145.06;0.00;60892.56;6007854;23;19912;-91
2023/10/10 07:17:49;;;;;;;;;;;;;;;-145.06;0.00;60892.56;6007111;23;20102;-91
2023/10/10 07:23:36;;;;;;;;;;;;;;;-145.06;0.00;60892.56;6037321;23;19911;-90
2023/10/10 07:26:23;;;;;;;;;;;;;;;-145.06;0.00;60892.56;6006801;23;19915;-92
2023/10/10 07:29:26;;;;;;;;;;;;;;;-145.06;0.00;60892.56;6006213;23;19978;-92
2023/10/10 07:32:16;;;;;;;;;;;;;;;-145.06;0.00;60892.56;6027266;23;19912;-92
2023/10/10 07:34:55;;;;;;;;;;;;;;;-145.06;0.00;60892.56;6008947;23;19911;-92
2023/10/10 07:37:34;;;;;;;;;;;;;;;-145.06;0.00;60892.56;6008172;23;20322;-92
2023/10/10 07:42:58;;;;;;;;;;;;;;;-145.06;0.00;60892.56;6040326;23;19907;-90
2023/10/10 07:45:43;;;;;;;;;;;;;;;-145.06;0.00;60892.56;6009001;23;19912;-91
2023/10/10 07:51:07;;;;;;;;;;;;;;;-145.06;0.00;60892.56;6039328;23;19911;-90
2023/10/10 07:53:58;;;;;;;;;;;;;;;-145.06;0.00;60892.56;6008691;23;19908;-91
2023/10/10 07:56:44;;;;;;;;;;;;;;;15.61;0.00;60892.56;6008837;23;19908;-91
2023/10/10 07:59:24;;;;;;;;;;;;;;;-145.06;0.00;60892.56;6009113;23;19908;-92
2023/10/10 08:02:19;;;;;;;;;;;;;;;-145.06;0.00;60892.56;6006604;23;20366;-92
2023/10/10 08:05:01;;;;;;;;;;;;;;;-145.06;0.00;60892.56;6009373;23;19915;-90
2023/10/10 08:07:40;;;;;;;;;;;;;;;-145.06;0.00;60892.56;6006969;23;20319;-90
2023/10/10 08:10:37;;;;;;;;;;;;;;;17.18;0.00;60892.56;6029901;23;19915;-92
2023/10/10 08:13:17;;;;;;;;;;;;;;;-145.06;0.00;60892.56;6010506;23;19916;-91
2023/10/10 08:15:56;;;;;;;;;;;;;;;-145.06;0.00;60892.56;6011187;23;19908;-91
2023/10/10 08:21:49;;;;;;;;;;;;;;;-145.06;0.00;60892.56;6034559;23;19912;-92
2023/10/10 08:24:28;;;;;;;;;;;;;;;-145.06;0.00;60892.56;6010362;23;19915;-90
2023/10/10 08:27:10;;;;;;;;;;;;;;;-145.06;0.00;60892.56;6008059;23;19908;-92
2023/10/10 08:29:50;;;;;;;;;;;;;;;-145.06;0.00;60892.56;6008713;23;20338;-90
2023/10/10 08:32:30;;;;;;;;;;;;;;;-145.06;0.00;60892.56;6008530;23;19942;-92
2023/10/10 08:35:10;;;;;;;;;;;;;;;-145.06;0.00;60892.56;6011557;23;19916;-92
2023/10/10 08:37:52;;;;;;;;;;;;;;;-145.06;0.00;60892.56;6009320;23;20227;-90
2023/10/10 08:40:33;;;;;;;;;;;;;;;-145.06;0.00;60892.56;6007487;23;19995;-90
2023/10/10 08:43:13;;;;;;;;;;;;;;;-145.06;0.00;60892.56;6005863;23;19923;-89
2023/10/10 08:45:54;;;;;;;;;;;;;;;-145.06;0.00;60892.56;6006575;23;19911;-91
2023/10/10 08:48:34;;;;;;;;;;;;;;;-145.06;0.00;60892.56;6004717;23;19908;-90
2023/10/10 08:51:13;;;;;;;;;;;;;;;-145.06;0.00;60892.56;6029963;23;20263;-91
2023/10/10 08:53:53;;;;;;;;;;;;;;;-145.06;0.00;60892.56;6001621;23;19931;-90
2023/10/10 08:56:37;;;;;;;;;;;;;;;-145.06;0.00;60892.56;6001689;23;19912;-90
2023/10/10 08:59:17;;;;;;;;;;;;;;;-145.06;0.00;60892.56;6035488;23;19971;-89
2023/10/10 09:02:06;;;;;;;;;;;;;;;-145.06;0.00;60892.56;6000386;23;19908;-89
2023/10/10 09:04:45;;;;;;;;;;;;;;;-145.06;0.00;60892.56;6003402;23;19915;-91
2023/10/10 09:07:30;;;;;;;;;;;;;;;-145.06;0.00;60892.56;6002354;23;19911;-90
2023/10/10 09:10:15;;;;;;;;;;;;;;;-145.06;0.00;60892.56;6001707;23;19915;-90
2023/10/10 09:13:01;;;;;;;;;;;;;;;-145.06;0.00;60892.56;6000242;23;19943;-91
2023/10/10 09:15:55;;;;;;;;;;;;;;;18.43;0.00;104794.97;5999024;23;19916;-91
2023/10/10 09:18:36;;;;;;;;;;;;;;;-145.06;0.00;60892.56;6001573;23;19911;-91
2023/10/10 09:21:18;;;;;;;;;;;;;;;-145.06;0.00;60892.56;6001953;23;20468;-91
2023/10/10 09:24:25;;;;;;;;;;;;;;;-145.06;0.00;60892.56;6002331;23;20477;-90
2023/10/10 09:27:22;;;;;;;;;;;;;;;-145.06;0.00;60892.56;6002232;23;19911;-91
2023/10/10 09:30:09;;;;;;;;;;;;;;;-145.06;0.00;60892.56;6003537;23;19908;-90
2023/10/10 09:32:48;;;;;;;;;;;;;;;-145.06;0.00;60892.56;6003246;23;19907;-92
2023/10/10 09:35:28;;;;;;;;;;;;;;;-145.06;0.00;60892.56;6025166;23;19950;-90
2023/10/10 09:38:19;;;;;;;;;;;;;;;-145.06;0.00;60892.56;6002618;23;19912;-93
2023/10/10 09:41:11;;;;;;;;;;;;;;;-145.06;0.00;60892.56;6002935;23;19911;-91
2023/10/10 09:44:30;;;;;;;;;;;;;;;-145.06;0.00;60892.56;6002932;23;19911;-91
2023/10/10 09:49:52;;;;;;;;;;;;;;;-145.06;0.00;60892.56;6032978;23;19907;-91
2023/10/10 10:00:53;;;;;;;;;;;;;;;-145.06;0.00;60892.56;6034527;23;19908;-91
2023/10/10 10:03:36;;;;;;;;;;;;;;;-145.06;0.00;60892.56;6003177;23;19907;-91
2023/10/10 10:09:17;;;;;;;;;;;;;;;-145.06;0.00;60892.56;6035937;23;19935;-92
2023/10/10 10:11:59;;;;;;;;;;;;;;;-145.06;0.00;60892.56;6001783;23;19916;-90
2023/10/10 10:14:59;;;;;;;;;;;;;;;-145.06;0.00;60892.56;6004069;23;20346;-92
2023/10/10 10:17:54;;;;;;;;;;;;;;;-145.06;0.00;60892.56;6004787;23;19931;-93
2023/10/10 10:20:46;;;;;;;;;;;;;;;-145.06;0.00;60892.56;6003692;23;19907;-91
2023/10/10 10:23:28;;;;;;;;;;;;;;;-145.06;0.00;60892.56;6001613;23;19908;-91
2023/10/10 10:26:11;;;;;;;;;;;;;;;-145.06;0.00;60892.56;6003778;23;20006;-90
2023/10/10 10:28:56;;;;;;;;;;;;;;;-145.06;0.00;60892.56;6002918;23;19916;-91
2023/10/10 10:31:36;;;;;;;;;;;;;;;-145.06;0.00;60892.56;6001974;23;19908;-92
2023/10/10 10:37:28;;;;;;;;;;;;;;;-145.06;0.00;60892.56;6026547;23;19911;-91
2023/10/10 10:42:53;;;;;;;;;;;;;;;-145.06;0.00;60892.56;6034136;23;19908;-91
2023/10/10 10:45:40;;;;;;;;;;;;;;;-145.06;0.00;60892.56;6002831;23;19911;-91
2023/10/10 10:48:34;;;;;;;;;;;;;;;-145.06;0.00;60892.56;6001897;23;19912;-91
2023/10/10 10:51:26;;;;;;;;;;;;;;;-145.06;0.00;60892.56;6003571;23;19907;-90
2023/10/10 10:54:07;;;;;;;;;;;;;;;-145.06;0.00;60892.56;6004085;23;19908;-91
2023/10/10 10:56:46;;;;;;;;;;;;;;;-145.06;0.00;60892.56;6003892;23;19987;-91
2023/10/10 10:59:35;;;;;;;;;;;;;;;-145.06;0.00;60892.56;6003462;23;19907;-90
2023/10/10 11:02:27;;;;;;;;;;;;;;;-145.06;0.00;60892.56;6001367;23;19911;-92
2023/10/10 11:05:07;;;;;;;;;;;;;;;-145.06;0.00;60892.56;6002810;23;19939;-91
2023/10/10 11:07:47;;;;;;;;;;;;;;;-145.06;0.00;60892.56;6003991;23;19908;-91
2023/10/10 11:10:36;;;;;;;;;;;;;;;-145.06;0.00;60892.56;6001985;23;19911;-91
2023/10/10 11:13:15;;;;;;;;;;;;;;;23.04;0.00;60892.56;6002641;23;19912;-91
2023/10/10 11:16:10;;;;;;;;;;;;;;;23.17;0.00;60892.56;6004529;23;20327;-91
2023/10/10 11:18:57;;;;;;;;;;;;;;;23.31;0.00;60892.56;6002851;23;19908;-91
2023/10/10 11:21:36;;;;;;;;;;;;;;;23.48;0.00;60892.56;6035409;23;19907;-91
2023/10/10 11:24:23;;;;;;;;;;;;;;;-145.06;0.00;60892.56;6035263;23;19915;-92
2023/10/10 11:29:50;;;;;;;;;;;;;;;-145.06;0.00;60892.56;6034936;23;19911;-90
2023/10/10 11:32:36;;;;;;;;;;;;;;;-145.06;0.00;60892.56;6002346;23;19915;-92
2023/10/10 11:35:22;;;;;;;;;;;;;;;-145.06;0.00;60892.56;6003055;23;20314;-90
2023/10/10 11:38:10;;;;;;;;;;;;;;;-145.06;0.00;60892.56;6002896;23;19907;-92
2023/10/10 11:40:52;;;;;;;;;;;;;;;-145.06;0.00;60892.56;6002564;23;19911;-89
2023/10/10 11:43:31;;;;;;;;;;;;;;;-145.06;0.00;60892.56;6036532;23;19911;-91
2023/10/10 11:46:12;;;;;;;;;;;;;;;-145.06;0.00;60892.56;6003079;23;19915;-91
2023/10/10 11:48:51;;;;;;;;;;;;;;;-145.06;0.00;60892.56;6002691;23;19915;-91
2023/10/10 11:51:36;;;;;;;;;;;;;;;-145.06;0.00;60892.56;6002576;23;20299;-89
2023/10/10 11:54:25;;;;;;;;;;;;;;;-145.06;0.00;60892.56;6001986;23;19911;-90
2023/10/10 11:57:03;;;;;;;;;;;;;;;-145.06;0.00;60892.56;6001777;23;19998;-89
2023/10/10 11:59:44;;;;;;;;;;;;;;;-145.06;0.00;60892.56;6002534;23;19911;-90
2023/10/10 12:02:29;;;;;;;;;;;;;;;-145.06;0.00;60892.56;6001174;23;19911;-89
2023/10/10 12:05:36;;;;;;;;;;;;;;;-145.06;0.00;60892.56;6001951;23;19915;-89
2023/10/10 12:08:15;;;;;;;;;;;;;;;-145.06;0.00;60892.56;6025686;23;19907;-90
2023/10/10 12:11:11;;;;;;;;;;;;;;;-145.06;0.00;60892.56;6035083;23;19911;-88
2023/10/10 12:13:51;;;;;;;;;;;;;;;-145.06;0.00;60892.56;6001839;23;20181;-91
2023/10/10 12:16:30;;;;;;;;;;;;;;;-145.06;0.00;60892.56;6002343;23;19912;-90
2023/10/10 12:19:09;;;;;;;;;;;;;;;-145.06;0.00;60892.56;6001656;23;19912;-89
2023/10/10 12:21:48;;;;;;;;;;;;;;;-145.06;0.00;60892.56;6023888;23;19911;-89
2023/10/10 12:24:27;;;;;;;;;;;;;;;-145.06;0.00;60892.56;6002309;23;19916;-89
2023/10/10 12:27:08;;;;;;;;;;;;;;;-145.06;0.00;60892.56;6001653;23;20006;-90
2023/10/10 12:29:47;;;;;;;;;;;;;;;-145.06;0.00;60892.56;6003042;23;20014;-90
2023/10/10 12:32:26;;;;;;;;;;;;;;;-145.06;0.00;60892.56;6031494;23;19911;-89
2023/10/10 12:35:10;;;;;;;;;;;;;;;-145.06;0.00;60892.56;6002326;23;19911;-89
2023/10/10 12:37:49;;;;;;;;;;;;;;;-145.06;0.00;60892.56;6002410;23;19908;-89
2023/10/10 12:40:30;;;;;;;;;;;;;;;-145.06;0.00;60892.56;6033098;23;19911;-89
2023/10/10 12:43:11;;;;;;;;;;;;;;;-145.06;0.00;60892.56;6001207;23;20239;-89
2023/10/10 12:45:54;;;;;;;;;;;;;;;-145.06;0.00;60892.56;6002446;23;19947;-90
2023/10/10 12:48:41;;;;;;;;;;;;;;;-145.06;0.00;60892.56;6002214;23;19907;-90
2023/10/10 12:51:23;;;;;;;;;;;;;;;-145.06;0.00;60892.56;6000854;23;19911;-89
2023/10/10 12:54:05;;;;;;;;;;;;;;;-145.06;0.00;60892.56;6001991;23;19911;-91
2023/10/10 12:56:58;;;;;;;;;;;;;;;-145.06;0.00;60892.56;6001923;23;20215;-90
2023/10/10 12:59:38;;;;;;;;;;;;;;;-145.06;0.00;60892.56;6001172;23;19939;-89
2023/10/10 13:02:25;;;;;;;;;;;;;;;-145.06;0.00;60892.56;6001742;23;19908;-91
2023/10/10 13:05:07;;;;;;;;;;;;;;;-145.06;0.00;60892.56;6032676;23;19931;-90
2023/10/10 13:07:49;;;;;;;;;;;;;;;-145.06;0.00;60892.56;5997710;23;19908;-90
2023/10/10 13:10:30;;;;;;;;;;;;;;;-145.06;0.00;60892.56;5999761;23;19911;-90
2023/10/10 13:13:09;;;;;;;;;;;;;;;-145.06;0.00;60892.56;5999380;23;19912;-90
2023/10/10 13:15:50;;;;;;;;;;;;;;;-145.06;0.00;60892.56;6002107;23;19915;-90
2023/10/10 13:18:29;;;;;;;;;;;;;;;-145.06;0.00;60892.56;6000380;23;19978;-90
2023/10/10 13:21:08;;;;;;;;;;;;;;;-145.06;0.00;60892.56;6034957;23;19911;-91
2023/10/10 13:23:47;;;;;;;;;;;;;;;-145.06;0.00;60892.56;6002620;23;19911;-90
2023/10/10 13:26:27;;;;;;;;;;;;;;;-145.06;0.00;60892.56;6039446;23;19911;-91
2023/10/10 13:29:06;;;;;;;;;;;;;;;-145.06;0.00;60892.56;6006554;23;20255;-91
2023/10/10 13:31:49;;;;;;;;;;;;;;;-145.06;0.00;60892.56;6007286;23;20363;-91
2023/10/10 13:34:28;;;;;;;;;;;;;;;-145.06;0.00;60892.56;6005136;23;19928;-91
2023/10/10 13:37:09;;;;;;;;;;;;;;;-145.06;0.00;60892.56;6026659;23;19911;-91
2023/10/10 13:39:48;;;;;;;;;;;;;;;-145.06;0.00;60892.56;6000193;23;19931;-89
2023/10/10 13:42:30;;;;;;;;;;;;;;;-145.06;0.00;60892.56;6007428;23;19911;-93
2023/10/10 13:45:11;;;;;;;;;;;;;;;-145.06;0.00;60892.56;6010307;23;19912;-92
2023/10/10 13:47:55;;;;;;;;;;;;;;;-145.06;0.00;60892.56;6013688;23;19907;-93
2023/10/10 13:50:54;;;;;;;;;;;;;;;-145.06;0.00;60892.56;6015234;23;19908;-92
2023/10/10 13:53:40;;;;;;;;;;;;;;;-145.06;0.00;60892.56;6008757;23;20207;-92
2023/10/10 14:30:39;;;;;;;;;;;;;;;-145.06;0.00;60892.56;6033780;22;19994;-91
2023/10/10 14:33:22;;;;;;;;;;;;;;;-145.06;0.00;60892.56;6012924;23;19912;-90
2023/10/10 14:39:36;;;;;;;;;;;;;;;-145.06;0.00;60892.56;5973573;23;19936;-94
2023/10/10 14:42:54;;;;;;;;;;;;;;;-145.06;0.00;60892.56;5956993;23;19936;-91
2023/10/10 14:45:34;;;;;;;;;;;;;;;-145.06;0.00;60892.56;5872436;23;20363;-90
2023/10/10 14:52:06;;;;;;;;;;;;;;;;;;;;;
2023/10/10 15:16:49;;;;;;;;;;;;;;;;;;;;;
2023/10/10 15:33:13;;;;;;;;;;;;;;;-145.06;0.00;60892.56;5979240;23;20232;-91
2023/10/10 15:36:00;;;;;;;;;;;;;;;-145.06;0.00;60892.56;6006313;23;19932;-91
2023/10/10 15:55:16;;;;;;;;;;;;;;;-145.06;0.00;60892.56;5929801;23;19940;-90
2023/10/10 16:06:42;;;;;;;;;;;;;;;-145.06;0.00;60892.56;5919029;23;19920;-92
2023/10/10 16:09:29;;;;;;;;;;;;;;;-145.06;0.00;60892.56;6000526;23;19908;-91
2023/10/10 16:12:12;;;;;;;;;;;;;;;-145.06;0.00;60892.56;6000735;23;19909;-92
2023/10/10 16:14:55;;;;;;;;;;;;;;;-145.06;0.00;60892.56;6000726;23;19912;-92
2023/10/10 16:17:44;;;;;;;;;;;;;;;-145.06;0.00;60892.56;5999774;23;19909;-92
2023/10/10 16:25:53;;;;;;;;;;;;;;;-145.06;0.00;60892.56;5930006;23;19920;-93
2023/10/10 16:29:06;;;;;;;;;;;;;;;;;;;;;
2023/10/10 17:09:26;;;;;;;;;;;;;;;;;;;;;
2023/10/10 17:14:48;;;;;;;;;;;;;;;-145.06;0.00;60892.56;5966466;23;19927;-90
2023/10/10 17:44:37;;;;;;;;;;;;;;;22.25;0.00;60892.56;5956384;23;20491;-94
2023/10/10 18:40:30;;;;;;;;;;;;;;;-145.06;0.00;60892.56;5938529;23;19928;-94
2023/10/10 18:43:28;;;;;;;;;;;;;;;-145.06;0.00;60892.56;5913917;23;19921;-93
2023/10/10 18:49:44;;;;;;;;;;;;;;;-145.06;0.00;60892.56;5960067;23;19913;-94
2023/10/10 18:52:33;;;;;;;;;;;;;;;-145.06;0.00;60892.56;5949024;23;19909;-93
2023/10/10 18:55:49;;;;;;;;;;;;;;;-145.06;0.00;60892.56;5947193;23;19936;-93
2023/10/10 18:58:36;;;;;;;;;;;;;;;-145.06;0.00;60892.56;5956427;23;19913;-93
2023/10/10 19:01:21;;;;;;;;;;;;;;;-145.06;0.00;60892.56;5948443;23;19909;-94
2023/10/10 19:07:37;;;;;;;;;;;;;;;-145.06;0.00;60892.56;5959207;23;19908;-93
2023/10/10 19:10:50;;;;;;;;;;;;;;;-145.06;0.00;60892.56;5948758;23;19932;-92
2023/10/10 19:20:28;;;;;;;;;;;;;;;21.03;0.00;81616.88;5917654;23;19908;-92
